createdAt,value
2022-10-17T00:00:19.469Z,34.63
2022-10-17T00:01:23.507Z,36.60
2022-10-17T00:02:26.455Z,78.93
2022-10-17T00:03:30.538Z,87.20
2022-10-17T00:05:41.508Z,31.85
2022-10-17T00:06:45.005Z,22.13
2022-10-17T00:07:49.109Z,24.00
2022-10-17T00:08:53.167Z,19.63
2022-10-17T00:09:57.308Z,29.35
2022-10-17T00:11:01.657Z,31.60
2022-10-17T00:12:06.017Z,27.35
2022-10-17T00:13:10.556Z,22.67
2022-10-17T00:14:14.516Z,29.08
2022-10-17T00:15:18.676Z,24.63
2022-10-17T00:16:26.684Z,79.20
2022-10-17T00:17:31.215Z,24.13
2022-10-17T00:18:35.339Z,49.58
2022-10-17T00:19:38.568Z,31.65
2022-10-17T00:20:42.570Z,38.08
2022-10-17T00:21:45.466Z,32.40
2022-10-17T00:22:49.421Z,56.83
2022-10-17T00:23:52.835Z,45.80
2022-10-17T00:24:57.125Z,84.57
2022-10-17T00:26:02.009Z,21.20
2022-10-17T00:27:06.197Z,20.55
2022-10-17T00:28:11.185Z,19.15
2022-10-17T00:29:15.221Z,22.25
2022-10-17T00:30:18.356Z,21.88
2022-10-17T00:31:24.217Z,33.03
2022-10-17T00:32:27.383Z,29.17
2022-10-17T00:33:32.238Z,30.88
2022-10-17T00:34:35.328Z,22.88
2022-10-17T00:35:39.348Z,26.02
2022-10-17T00:36:42.276Z,25.92
2022-10-17T00:37:46.258Z,24.85
2022-10-17T00:38:51.029Z,26.05
2022-10-17T00:39:55.526Z,27.75
2022-10-17T00:40:58.997Z,31.98
2022-10-17T00:42:02.998Z,67.88
2022-10-17T00:43:07.266Z,77.88
2022-10-17T00:44:47.701Z,95.68
2022-10-17T00:45:53.145Z,45.47
2022-10-17T00:46:56.637Z,37.58
2022-10-17T00:48:02.630Z,31.02
2022-10-17T00:49:07.528Z,22.23
2022-10-17T00:50:11.829Z,22.33
2022-10-17T00:51:15.366Z,20.52
2022-10-17T00:52:22.991Z,16.60
2022-10-17T00:53:25.960Z,20.33
2022-10-17T00:54:33.638Z,15.38
2022-10-17T00:55:39.113Z,20.98
2022-10-17T00:56:44.068Z,21.83
2022-10-17T00:57:47.129Z,23.50
2022-10-17T00:58:51.249Z,22.85
2022-10-17T00:59:56.972Z,28.98
2022-10-17T01:01:03.516Z,46.55
2022-10-17T01:02:09.337Z,134.45
2022-10-17T01:03:13.328Z,199.40
2022-10-17T01:04:16.440Z,155.18
2022-10-17T01:05:21.190Z,124.05
2022-10-17T01:06:24.168Z,91.28
2022-10-17T01:07:33.118Z,49.60
2022-10-17T01:08:39.580Z,25.20
2022-10-17T01:09:45.049Z,38.80
2022-10-17T01:10:55.710Z,21.17
2022-10-17T01:12:06.279Z,26.13
2022-10-17T01:13:14.450Z,34.50
2022-10-17T01:14:24.675Z,26.70
2022-10-17T01:15:37.658Z,27.23
2022-10-17T01:16:49.146Z,22.65
2022-10-17T01:18:01.956Z,25.52
2022-10-17T01:20:59.915Z,25.73
2022-10-17T01:22:07.668Z,25.20
2022-10-17T01:23:23.640Z,30.85
2022-10-17T01:24:49.411Z,25.00
2022-10-17T01:25:56.783Z,24.05
2022-10-17T01:27:33.849Z,22.48
2022-10-17T01:29:03.047Z,62.30
2022-10-17T01:30:35.537Z,34.60
2022-10-17T01:31:44.357Z,36.75
2022-10-17T01:32:50.776Z,24.70
2022-10-17T01:34:01.205Z,23.42
2022-10-17T01:35:09.979Z,25.13
2022-10-17T01:36:19.167Z,26.80
2022-10-17T01:37:28.768Z,21.88
2022-10-17T01:38:36.283Z,26.02
2022-10-17T01:39:45.473Z,24.85
2022-10-17T01:40:55.479Z,26.83
2022-10-17T01:42:02.594Z,23.58
2022-10-17T01:43:10.467Z,21.83
2022-10-17T01:44:16.062Z,24.00
2022-10-17T01:45:24.318Z,25.75
2022-10-17T01:46:30.368Z,26.25
2022-10-17T01:47:36.387Z,29.50
2022-10-17T01:48:43.428Z,29.52
2022-10-17T01:49:48.360Z,29.95
2022-10-17T01:50:54.267Z,26.95
2022-10-17T01:52:01.818Z,26.77
2022-10-17T01:53:09.330Z,27.20
2022-10-17T01:54:18.286Z,28.75
2022-10-17T01:55:26.200Z,31.50
2022-10-17T01:56:34.496Z,29.55
2022-10-17T01:57:41.458Z,28.60
2022-10-17T01:58:49.056Z,25.27
2022-10-17T01:59:52.898Z,31.80
2022-10-17T02:01:01.595Z,39.13
2022-10-17T02:02:08.126Z,24.92
2022-10-17T02:03:15.956Z,17.75
2022-10-17T02:04:20.099Z,23.75
2022-10-17T02:05:26.608Z,26.80
2022-10-17T02:06:29.635Z,32.25
2022-10-17T02:07:34.567Z,34.38
2022-10-17T02:08:42.438Z,34.25
2022-10-17T02:09:46.607Z,33.28
2022-10-17T02:10:53.900Z,37.13
2022-10-17T02:12:11.531Z,50.78
2022-10-17T02:13:22.256Z,72.40
2022-10-17T02:14:33.698Z,43.33
2022-10-17T02:16:01.403Z,28.80
2022-10-17T02:17:10.868Z,33.90
2022-10-17T02:18:29.779Z,35.03
2022-10-17T02:19:45.518Z,33.33
2022-10-17T02:20:54.277Z,33.47
2022-10-17T02:22:05.718Z,36.22
2022-10-17T02:23:13.150Z,34.63
2022-10-17T02:24:21.573Z,36.97
2022-10-17T02:25:34.228Z,32.75
2022-10-17T02:26:42.130Z,35.08
2022-10-17T02:27:52.078Z,31.60
2022-10-17T02:29:03.210Z,89.63
2022-10-17T02:30:11.892Z,40.53
2022-10-17T02:31:17.390Z,42.03
2022-10-17T02:32:26.633Z,161.75
2022-10-17T02:33:34.456Z,122.60
2022-10-17T02:34:40.759Z,74.22
2022-10-17T02:35:47.807Z,27.27
2022-10-17T02:36:54.166Z,23.00
2022-10-17T02:37:58.959Z,31.48
2022-10-17T02:39:03.961Z,31.65
2022-10-17T02:40:08.017Z,28.30
2022-10-17T02:41:19.025Z,139.95
2022-10-17T02:42:23.737Z,38.92
2022-10-17T02:43:27.897Z,26.45
2022-10-17T02:44:31.445Z,26.75
2022-10-17T02:45:37.336Z,27.20
2022-10-17T02:46:42.217Z,33.17
2022-10-17T02:47:52.960Z,32.08
2022-10-17T02:49:01.606Z,30.30
2022-10-17T02:50:06.678Z,32.05
2022-10-17T02:51:12.877Z,31.75
2022-10-17T02:52:20.763Z,29.58
2022-10-17T02:53:30.277Z,26.73
2022-10-17T02:54:40.399Z,31.48
2022-10-17T02:55:48.900Z,29.92
2022-10-17T02:56:57.233Z,29.67
2022-10-17T02:58:03.394Z,27.25
2022-10-17T02:59:09.524Z,25.20
2022-10-17T03:00:14.532Z,23.88
2022-10-17T03:01:19.079Z,31.52
2022-10-17T03:02:22.678Z,31.67
2022-10-17T03:03:28.343Z,30.85
2022-10-17T03:04:37.379Z,40.35
2022-10-17T03:05:41.306Z,60.50
2022-10-17T03:06:46.198Z,32.78
2022-10-17T03:07:51.120Z,22.88
2022-10-17T03:08:54.096Z,38.67
2022-10-17T03:09:58.059Z,34.55
2022-10-17T03:11:01.264Z,19.55
2022-10-17T03:12:05.965Z,23.98
2022-10-17T03:13:10.397Z,29.40
2022-10-17T03:14:17.270Z,25.95
2022-10-17T03:15:20.262Z,28.05
2022-10-17T03:16:24.249Z,43.83
2022-10-17T03:17:28.294Z,142.60
2022-10-17T03:18:31.262Z,104.25
2022-10-17T03:19:39.218Z,38.10
2022-10-17T03:20:42.389Z,25.33
2022-10-17T03:21:46.348Z,25.52
2022-10-17T03:22:49.328Z,26.20
2022-10-17T03:23:53.416Z,30.17
2022-10-17T03:24:58.378Z,24.10
2022-10-17T03:26:05.508Z,25.00
2022-10-17T03:38:25.228Z,46.22
2022-10-17T03:39:29.700Z,33.65
2022-10-17T03:40:32.641Z,28.05
2022-10-17T03:41:36.800Z,31.55
2022-10-17T03:42:39.787Z,36.97
2022-10-17T03:43:43.861Z,40.92
2022-10-17T03:44:46.829Z,26.23
2022-10-17T03:45:50.781Z,29.55
2022-10-17T03:46:53.690Z,34.15
2022-10-17T03:47:57.746Z,30.85
2022-10-17T03:49:01.359Z,32.85
2022-10-17T03:50:06.510Z,35.47
2022-10-17T03:51:12.499Z,25.30
2022-10-17T03:52:21.850Z,33.88
2022-10-17T03:53:26.707Z,31.13
2022-10-17T03:54:31.360Z,169.88
2022-10-17T03:55:34.318Z,126.55
2022-10-17T03:56:38.819Z,225.85
2022-10-17T03:57:46.190Z,36.28
2022-10-17T03:58:51.955Z,50.65
2022-10-17T03:59:54.868Z,43.15
2022-10-17T04:00:59.209Z,45.85
2022-10-17T04:02:02.248Z,40.80
2022-10-17T04:03:06.230Z,35.90
2022-10-17T04:04:09.558Z,35.60
2022-10-17T04:05:14.407Z,41.47
2022-10-17T04:06:17.491Z,44.38
2022-10-17T04:07:21.551Z,38.63
2022-10-17T04:08:26.920Z,39.20
2022-10-17T04:09:42.438Z,33.33
2022-10-17T04:10:49.261Z,90.55
2022-10-17T04:11:53.328Z,35.15
2022-10-17T04:12:57.686Z,47.22
2022-10-17T04:14:01.790Z,46.20
2022-10-17T04:15:07.251Z,60.80
2022-10-17T04:16:16.718Z,53.22
2022-10-17T04:17:29.186Z,28.35
2022-10-17T04:18:32.328Z,35.72
2022-10-17T04:19:36.404Z,28.30
2022-10-17T04:20:39.275Z,27.42
2022-10-17T04:21:43.488Z,31.25
2022-10-17T04:22:46.500Z,34.33
2022-10-17T04:23:54.736Z,33.28
2022-10-17T04:25:10.307Z,37.67
2022-10-17T04:26:17.302Z,32.03
2022-10-17T04:27:20.301Z,36.55
2022-10-17T04:28:25.191Z,33.60
2022-10-17T04:29:28.633Z,31.45
2022-10-17T04:30:43.672Z,27.50
2022-10-17T04:31:50.028Z,32.80
2022-10-17T04:32:58.557Z,33.72
2022-10-17T04:34:03.488Z,35.22
2022-10-17T04:35:08.249Z,38.50
2022-10-17T04:36:13.081Z,45.42
2022-10-17T04:37:17.815Z,38.00
2022-10-17T04:38:27.607Z,55.60
2022-10-17T04:39:34.131Z,60.60
2022-10-17T04:40:37.303Z,84.13
2022-10-17T04:41:41.911Z,94.82
2022-10-17T04:42:45.407Z,84.75
2022-10-17T04:43:52.510Z,86.55
2022-10-17T04:44:56.867Z,37.17
2022-10-17T04:46:04.819Z,33.08
2022-10-17T04:47:10.168Z,31.30
2022-10-17T04:48:14.700Z,41.33
2022-10-17T04:49:19.648Z,50.45
2022-10-17T04:50:25.288Z,42.70
2022-10-17T04:51:49.210Z,72.70
2022-10-17T04:53:01.853Z,90.90
2022-10-17T04:54:06.017Z,110.07
2022-10-17T04:55:11.440Z,110.78
2022-10-17T04:56:17.333Z,83.75
2022-10-17T04:57:20.810Z,58.38
2022-10-17T04:58:42.042Z,55.17
2022-10-17T04:59:46.908Z,58.65
2022-10-17T05:00:57.183Z,89.63
2022-10-17T05:02:06.108Z,53.75
2022-10-17T05:03:10.380Z,66.80
2022-10-17T05:04:14.360Z,50.88
2022-10-17T05:05:17.309Z,63.65
2022-10-17T05:06:25.509Z,60.75
2022-10-17T05:07:46.368Z,179.30
2022-10-17T05:08:55.147Z,60.33
2022-10-17T05:09:58.977Z,40.13
2022-10-17T05:11:05.999Z,49.33
2022-10-17T05:12:10.402Z,46.00
2022-10-17T05:13:17.736Z,40.85
2022-10-17T05:14:20.899Z,42.63
2022-10-17T05:15:25.549Z,35.30
2022-10-17T05:16:32.240Z,37.15
2022-10-17T05:17:35.216Z,37.20
2022-10-17T05:18:39.380Z,40.30
2022-10-17T05:19:42.289Z,44.95
2022-10-17T05:20:46.470Z,37.75
2022-10-17T05:21:49.490Z,29.80
2022-10-17T05:22:53.470Z,29.05
2022-10-17T05:23:57.387Z,28.15
2022-10-17T05:25:01.643Z,46.83
2022-10-17T05:26:06.333Z,32.47
2022-10-17T05:27:10.320Z,28.00
2022-10-17T05:28:13.407Z,34.42
2022-10-17T05:29:19.572Z,41.33
2022-10-17T05:30:27.789Z,32.28
2022-10-17T05:31:45.117Z,38.85
2022-10-17T05:32:48.798Z,49.13
2022-10-17T05:33:52.770Z,49.55
2022-10-17T05:34:55.807Z,50.42
2022-10-17T05:36:02.076Z,73.63
2022-10-17T05:37:04.997Z,51.55
2022-10-17T05:38:09.876Z,47.97
2022-10-17T05:39:15.090Z,45.60
2022-10-17T05:40:19.590Z,42.25
2022-10-17T05:41:24.054Z,52.70
2022-10-17T05:42:28.641Z,55.88
2022-10-17T05:43:34.877Z,57.25
2022-10-17T05:44:39.507Z,45.83
2022-10-17T05:45:44.654Z,50.20
2022-10-17T05:46:53.797Z,43.28
2022-10-17T05:47:58.940Z,47.55
2022-10-17T05:49:05.299Z,50.83
2022-10-17T05:50:11.850Z,47.00
2022-10-17T05:51:36.113Z,44.00
2022-10-17T05:52:42.931Z,41.55
2022-10-17T05:53:52.608Z,42.47
2022-10-17T05:55:00.161Z,37.05
2022-10-17T05:56:06.702Z,33.92
2022-10-17T05:57:11.200Z,34.50
2022-10-17T05:58:21.969Z,31.27
2022-10-17T05:59:29.062Z,29.65
2022-10-17T06:00:38.951Z,35.75
2022-10-17T06:01:42.026Z,33.00
2022-10-17T06:02:47.224Z,29.17
2022-10-17T06:03:51.759Z,26.15
2022-10-17T06:04:55.806Z,26.67
2022-10-17T06:06:05.339Z,28.25
2022-10-17T06:07:08.282Z,24.35
2022-10-17T06:08:12.421Z,22.08
2022-10-17T06:09:19.016Z,22.98
2022-10-17T06:10:26.320Z,23.98
2022-10-17T06:11:30.218Z,26.65
2022-10-17T06:12:35.700Z,22.00
2022-10-17T06:13:38.848Z,29.45
2022-10-17T06:14:49.007Z,26.10
2022-10-17T06:15:52.103Z,27.73
2022-10-17T06:16:56.104Z,29.67
2022-10-17T06:17:58.955Z,25.45
2022-10-17T06:19:03.117Z,27.95
2022-10-17T06:20:07.267Z,27.10
2022-10-17T06:21:13.270Z,29.65
2022-10-17T06:22:20.641Z,32.05
2022-10-17T06:23:24.687Z,34.97
2022-10-17T06:24:40.941Z,25.13
2022-10-17T06:25:44.138Z,27.88
2022-10-17T06:26:50.066Z,30.65
2022-10-17T06:27:57.208Z,28.10
2022-10-17T06:29:00.250Z,37.67
2022-10-17T06:30:09.879Z,29.90
2022-10-17T06:31:14.684Z,30.73
2022-10-17T06:32:18.807Z,33.65
2022-10-17T06:33:23.643Z,29.08
2022-10-17T06:34:27.820Z,28.27
2022-10-17T06:35:30.810Z,24.85
2022-10-17T06:36:35.059Z,27.90
2022-10-17T06:37:38.215Z,30.23
2022-10-17T06:38:45.641Z,39.50
2022-10-17T06:39:57.521Z,35.60
2022-10-17T06:41:08.708Z,36.20
2022-10-17T06:42:11.719Z,44.58
2022-10-17T06:43:36.018Z,33.58
2022-10-17T06:44:59.931Z,25.85
2022-10-17T06:46:19.491Z,23.75
2022-10-17T06:47:51.859Z,34.05
2022-10-17T06:49:25.323Z,30.33
2022-10-17T06:50:35.690Z,35.38
2022-10-17T06:51:48.058Z,28.50
2022-10-17T06:52:55.205Z,23.50
2022-10-17T06:54:22.460Z,22.25
2022-10-17T06:55:45.539Z,20.05
2022-10-17T06:56:58.552Z,21.90
2022-10-17T06:58:17.429Z,23.98
2022-10-17T06:59:35.059Z,29.33
2022-10-17T07:00:46.181Z,20.05
2022-10-17T07:01:50.338Z,34.28
2022-10-17T07:02:53.531Z,34.03
2022-10-17T07:03:58.208Z,32.40
2022-10-17T07:05:01.289Z,23.38
2022-10-17T07:06:06.040Z,30.52
2022-10-17T07:07:20.123Z,27.02
2022-10-17T07:08:23.198Z,21.42
2022-10-17T07:09:27.968Z,25.27
2022-10-17T07:10:38.441Z,26.15
2022-10-17T07:11:44.318Z,22.00
2022-10-17T07:12:47.310Z,33.42
2022-10-17T07:13:51.258Z,20.90
2022-10-17T07:14:56.669Z,17.90
2022-10-17T07:16:01.962Z,20.20
2022-10-17T07:17:08.389Z,24.20
2022-10-17T07:18:11.585Z,20.00
2022-10-17T07:19:16.291Z,26.05
2022-10-17T07:20:19.217Z,24.33
2022-10-17T07:21:23.327Z,17.73
2022-10-17T07:22:26.407Z,21.25
2022-10-17T07:23:36.767Z,24.33
2022-10-17T07:24:40.906Z,17.67
2022-10-17T07:25:51.972Z,17.60
2022-10-17T07:26:56.320Z,18.38
2022-10-17T07:27:59.397Z,18.83
2022-10-17T07:29:03.577Z,21.65
2022-10-17T07:30:22.262Z,22.67
2022-10-17T07:31:52.367Z,16.13
2022-10-17T07:32:55.567Z,15.00
2022-10-17T07:34:01.241Z,18.88
2022-10-17T07:35:06.270Z,15.43
2022-10-17T07:36:09.586Z,19.27
2022-10-17T07:37:14.049Z,14.75
2022-10-17T07:38:24.002Z,15.77
2022-10-17T07:39:27.027Z,16.92
2022-10-17T07:40:31.171Z,14.77
2022-10-17T07:41:34.138Z,19.10
2022-10-17T07:43:43.590Z,17.60
2022-10-17T07:44:48.139Z,18.60
2022-10-17T07:45:54.132Z,19.08
2022-10-17T07:46:59.296Z,13.50
2022-10-17T07:48:02.550Z,14.95
2022-10-17T07:49:07.793Z,20.48
2022-10-17T07:50:11.149Z,17.98
2022-10-17T07:51:15.404Z,17.58
2022-10-17T07:52:19.470Z,20.33
2022-10-17T07:53:22.642Z,16.58
2022-10-17T07:54:26.943Z,19.92
2022-10-17T07:55:30.320Z,16.65
2022-10-17T07:56:36.237Z,18.38
2022-10-17T07:57:40.489Z,19.08
2022-10-17T07:58:44.692Z,21.17
2022-10-17T07:59:48.297Z,20.58
2022-10-17T08:00:53.802Z,20.13
2022-10-17T08:01:58.059Z,18.80
2022-10-17T08:03:00.969Z,17.77
2022-10-17T08:04:04.896Z,22.17
2022-10-17T08:05:08.792Z,19.10
2022-10-17T08:06:22.368Z,18.52
2022-10-17T08:07:33.647Z,17.25
2022-10-17T08:08:37.397Z,19.52
2022-10-17T08:09:41.348Z,13.43
2022-10-17T08:10:44.338Z,15.90
2022-10-17T08:11:49.269Z,15.38
2022-10-17T08:12:52.141Z,14.27
2022-10-17T08:13:56.195Z,12.90
2022-10-17T08:14:59.080Z,14.75
2022-10-17T08:16:05.759Z,15.88
2022-10-17T08:17:08.782Z,15.88
2022-10-17T08:18:13.994Z,16.50
2022-10-17T08:19:16.869Z,14.50
2022-10-17T08:20:20.940Z,15.15
2022-10-17T08:21:24.916Z,17.65
2022-10-17T08:22:29.149Z,16.85
2022-10-17T08:23:33.384Z,18.60
2022-10-17T08:24:37.421Z,18.30
2022-10-17T08:25:40.416Z,19.83
2022-10-17T08:26:46.181Z,18.02
2022-10-17T08:27:51.509Z,14.80
2022-10-17T08:28:55.660Z,18.10
2022-10-17T08:29:58.690Z,15.40
2022-10-17T08:31:09.139Z,15.98
2022-10-17T08:32:13.107Z,12.32
2022-10-17T08:33:16.140Z,17.83
2022-10-17T08:34:20.447Z,11.90
2022-10-17T08:35:24.051Z,13.80
2022-10-17T08:36:29.367Z,16.27
2022-10-17T08:37:32.829Z,20.77
2022-10-17T08:38:41.432Z,13.48
2022-10-17T08:39:46.279Z,16.75
2022-10-17T08:40:50.843Z,21.48
2022-10-17T08:42:05.338Z,13.85
2022-10-17T08:43:18.920Z,12.55
2022-10-17T08:44:35.242Z,13.57
2022-10-17T08:45:42.190Z,15.20
2022-10-17T08:46:49.828Z,14.02
2022-10-17T08:47:55.440Z,12.13
2022-10-17T08:49:02.200Z,13.98
2022-10-17T08:50:08.685Z,13.30
2022-10-17T08:51:16.759Z,24.63
2022-10-17T08:52:28.133Z,18.83
2022-10-17T08:53:36.479Z,21.05
2022-10-17T08:54:43.328Z,13.98
2022-10-17T08:55:49.067Z,15.02
2022-10-17T08:56:55.157Z,11.65
2022-10-17T08:57:59.404Z,13.60
2022-10-17T08:59:04.336Z,15.43
2022-10-17T09:00:15.870Z,10.13
2022-10-17T09:01:34.970Z,10.82
2022-10-17T09:02:51.866Z,11.05
2022-10-17T09:04:11.623Z,10.75
2022-10-17T09:05:43.043Z,9.77
2022-10-17T09:06:51.407Z,9.80
2022-10-17T09:08:01.402Z,10.60
2022-10-17T09:09:16.914Z,12.32
2022-10-17T09:10:27.396Z,10.88
2022-10-17T09:11:42.111Z,10.68
2022-10-17T09:12:50.987Z,10.05
2022-10-17T09:14:03.790Z,10.27
2022-10-17T09:15:31.185Z,16.33
2022-10-17T09:16:46.350Z,61.45
2022-10-17T09:17:53.523Z,31.05
2022-10-17T09:19:01.857Z,11.23
2022-10-17T09:20:11.537Z,15.00
2022-10-17T09:21:20.441Z,10.25
2022-10-17T09:22:26.660Z,11.98
2022-10-17T09:23:33.425Z,18.60
2022-10-17T09:24:41.128Z,9.95
2022-10-17T09:25:47.278Z,10.07
2022-10-17T09:26:52.722Z,7.75
2022-10-17T09:28:03.741Z,13.68
2022-10-17T09:29:16.346Z,12.02
2022-10-17T09:30:46.382Z,17.75
2022-10-17T09:31:54.288Z,11.18
2022-10-17T09:32:59.952Z,10.45
2022-10-17T09:34:04.751Z,25.08
2022-10-17T09:35:12.867Z,12.73
2022-10-17T09:36:19.045Z,11.60
2022-10-17T09:37:31.590Z,18.20
2022-10-17T09:38:40.905Z,14.35
2022-10-17T09:39:45.559Z,10.77
2022-10-17T09:40:56.890Z,13.45
2022-10-17T09:42:02.303Z,17.52
2022-10-17T09:43:08.149Z,10.18
2022-10-17T09:44:20.900Z,9.05
2022-10-17T09:45:26.246Z,10.95
2022-10-17T09:46:35.870Z,8.40
2022-10-17T09:47:42.670Z,13.88
2022-10-17T09:48:52.568Z,7.20
2022-10-17T09:49:57.795Z,7.35
2022-10-17T09:51:15.145Z,7.82
2022-10-17T09:52:30.567Z,10.98
2022-10-17T09:53:38.408Z,8.63
2022-10-17T09:54:44.977Z,11.35
2022-10-17T09:55:51.165Z,8.75
2022-10-17T09:57:02.995Z,8.32
2022-10-17T09:58:08.547Z,8.00
2022-10-17T09:59:33.820Z,9.18
2022-10-17T10:00:39.761Z,14.65
2022-10-17T10:01:42.778Z,10.05
2022-10-17T10:02:46.731Z,11.43
2022-10-17T10:04:10.778Z,9.68
2022-10-17T10:05:16.717Z,9.18
2022-10-17T10:06:22.015Z,11.30
2022-10-17T10:07:29.114Z,10.82
2022-10-17T10:08:35.749Z,7.97
2022-10-17T10:09:40.254Z,10.63
2022-10-17T10:10:44.900Z,23.40
2022-10-17T10:11:50.235Z,9.80
2022-10-17T10:13:06.301Z,19.20
2022-10-17T10:14:14.211Z,12.40
2022-10-17T10:15:34.012Z,7.85
2022-10-17T10:16:43.488Z,9.45
2022-10-17T10:17:47.449Z,7.28
2022-10-17T10:18:52.213Z,9.35
2022-10-17T10:19:56.206Z,9.70
2022-10-17T10:21:06.299Z,9.38
2022-10-17T10:22:18.290Z,25.27
2022-10-17T10:23:22.428Z,18.13
2022-10-17T10:24:30.836Z,12.93
2022-10-17T10:25:35.592Z,11.77
2022-10-17T10:26:42.036Z,25.85
2022-10-17T10:27:45.781Z,10.32
2022-10-17T10:28:57.933Z,11.95
2022-10-17T10:30:02.098Z,7.72
2022-10-17T10:31:07.208Z,8.38
2022-10-17T10:32:20.361Z,9.80
2022-10-17T10:33:26.046Z,7.40
2022-10-17T10:34:32.928Z,9.77
2022-10-17T10:35:36.944Z,13.23
2022-10-17T10:36:49.853Z,7.10
2022-10-17T10:37:55.934Z,7.53
2022-10-17T10:39:02.449Z,9.37
2022-10-17T10:40:18.281Z,7.20
2022-10-17T10:41:21.832Z,7.97
2022-10-17T10:42:28.161Z,8.23
2022-10-17T10:43:35.298Z,6.17
2022-10-17T10:44:42.290Z,6.68
2022-10-17T10:45:49.136Z,11.20
2022-10-17T10:47:11.337Z,9.68
2022-10-17T10:48:22.082Z,7.53
2022-10-17T10:49:31.719Z,12.20
2022-10-17T10:50:44.385Z,8.17
2022-10-17T10:51:48.700Z,10.05
2022-10-17T10:52:58.176Z,12.13
2022-10-17T10:54:06.812Z,9.13
2022-10-17T10:55:21.644Z,7.10
2022-10-17T10:56:29.921Z,6.17
2022-10-17T10:57:35.979Z,6.97
2022-10-17T10:58:47.800Z,52.05
2022-10-17T10:59:58.559Z,9.80
2022-10-17T11:01:06.588Z,6.70
2022-10-17T11:02:14.680Z,18.90
2022-10-17T11:03:23.248Z,25.40
2022-10-17T11:04:31.068Z,11.13
2022-10-17T11:05:42.741Z,11.47
2022-10-17T11:06:47.137Z,17.77
2022-10-17T11:07:56.250Z,25.90
2022-10-17T11:09:11.136Z,20.57
2022-10-17T11:10:17.608Z,16.67
2022-10-17T11:11:27.387Z,12.37
2022-10-17T11:12:35.028Z,9.23
2022-10-17T11:13:42.649Z,6.47
2022-10-17T11:14:49.021Z,21.37
2022-10-17T11:15:55.164Z,9.93
2022-10-17T11:17:07.550Z,11.37
2022-10-17T11:18:15.163Z,14.43
2022-10-17T11:19:26.335Z,17.50
2022-10-17T11:20:36.158Z,11.07
2022-10-17T11:21:45.888Z,11.27
2022-10-17T11:22:51.106Z,9.43
2022-10-17T11:24:00.179Z,6.53
2022-10-17T11:25:06.520Z,6.40
2022-10-17T11:26:14.816Z,6.80
2022-10-17T11:27:17.863Z,8.47
2022-10-17T11:28:23.173Z,20.73
2022-10-17T11:29:31.250Z,9.80
2022-10-17T11:31:54.322Z,9.90
2022-10-17T11:33:01.655Z,12.87
2022-10-17T11:34:07.598Z,8.90
2022-10-17T11:35:26.155Z,9.40
2022-10-17T11:36:32.117Z,14.47
2022-10-17T11:37:41.039Z,7.93
2022-10-17T11:38:49.729Z,6.03
2022-10-17T11:39:56.702Z,7.30
2022-10-17T11:41:00.507Z,10.20
2022-10-17T11:42:08.407Z,9.60
2022-10-17T11:43:15.398Z,10.13
2022-10-17T11:44:23.349Z,9.93
2022-10-17T11:45:29.456Z,32.03
2022-10-17T11:46:37.059Z,7.80
2022-10-17T11:47:45.382Z,7.60
2022-10-17T11:48:59.697Z,8.27
2022-10-17T11:53:07.938Z,13.53
2022-10-17T11:54:15.509Z,6.90
2022-10-17T11:55:22.948Z,7.90
2022-10-17T11:56:36.165Z,6.80
2022-10-17T11:58:00.258Z,15.40
2022-10-17T11:59:18.495Z,7.43
2022-10-17T12:00:28.721Z,7.20
2022-10-17T12:01:39.097Z,10.97
2022-10-17T12:02:48.130Z,6.03
2022-10-17T12:04:06.817Z,8.73
2022-10-17T12:05:20.199Z,6.60
2022-10-17T12:06:39.120Z,7.67
2022-10-17T12:07:48.623Z,8.80
2022-10-17T12:08:58.446Z,6.43
2022-10-17T12:10:09.001Z,9.10
2022-10-17T12:11:16.346Z,10.77
2022-10-17T12:12:28.610Z,9.53
2022-10-17T12:13:55.364Z,7.07
2022-10-17T12:15:29.560Z,7.10
2022-10-17T12:16:43.613Z,7.57
2022-10-17T12:17:48.070Z,6.90
2022-10-17T12:19:12.737Z,10.67
2022-10-17T12:20:29.132Z,11.73
2022-10-17T12:21:55.654Z,8.50
2022-10-17T12:23:04.754Z,9.80
2022-10-17T12:24:28.897Z,7.00
2022-10-17T12:25:34.423Z,10.53
2022-10-17T12:26:37.359Z,6.13
2022-10-17T12:27:43.958Z,8.63
2022-10-17T12:28:48.562Z,7.33
2022-10-17T12:29:59.647Z,7.47
2022-10-17T12:31:07.358Z,15.10
2022-10-17T12:32:13.325Z,13.03
2022-10-17T12:33:22.647Z,7.33
2022-10-17T12:34:25.669Z,8.90
2022-10-17T12:35:30.770Z,9.70
2022-10-17T12:36:38.468Z,10.07
2022-10-17T12:38:04.618Z,8.97
2022-10-17T12:39:41.570Z,11.20
2022-10-17T12:41:11.547Z,8.23
2022-10-17T12:42:30.539Z,9.50
2022-10-17T12:44:55.396Z,7.70
2022-10-17T12:45:59.095Z,7.70
2022-10-17T12:47:31.029Z,10.37
2022-10-17T12:49:03.016Z,11.63
2022-10-17T12:50:52.960Z,50.67
2022-10-17T12:52:24.085Z,10.70
2022-10-17T12:53:35.851Z,9.93
2022-10-17T12:54:47.653Z,9.47
2022-10-17T12:56:03.948Z,10.07
2022-10-17T12:57:14.685Z,8.27
2022-10-17T12:58:18.687Z,8.43
2022-10-17T12:59:25.497Z,8.40
2022-10-17T13:00:35.303Z,6.83
2022-10-17T13:01:39.639Z,11.13
2022-10-17T13:02:43.941Z,12.77
2022-10-17T13:03:48.519Z,8.37
2022-10-17T13:04:55.109Z,7.27
2022-10-17T13:06:02.084Z,12.20
2022-10-17T13:07:05.053Z,7.73
2022-10-17T13:08:10.599Z,10.27
2022-10-17T13:09:22.377Z,9.77
2022-10-17T13:10:28.419Z,8.80
2022-10-17T13:11:34.099Z,8.07
2022-10-17T13:12:41.300Z,6.80
2022-10-17T13:13:47.954Z,7.67
2022-10-17T13:14:52.058Z,10.43
2022-10-17T13:15:56.627Z,10.77
2022-10-17T13:17:00.518Z,14.43
2022-10-17T13:18:04.476Z,10.37
2022-10-17T13:19:14.788Z,8.40
2022-10-17T13:20:27.523Z,7.10
2022-10-17T13:21:34.467Z,12.73
2022-10-17T13:22:45.419Z,9.33
2022-10-17T13:23:53.219Z,17.67
2022-10-17T13:25:08.738Z,10.07
2022-10-17T13:26:20.298Z,9.47
2022-10-17T13:27:26.871Z,10.07
2022-10-17T13:28:33.894Z,8.20
2022-10-17T13:29:45.846Z,8.93
2022-10-17T13:30:49.986Z,11.57
2022-10-17T13:31:54.793Z,12.87
2022-10-17T13:32:59.030Z,7.97
2022-10-17T13:34:05.011Z,9.30
2022-10-17T13:35:10.562Z,8.10
2022-10-17T13:36:19.027Z,9.57
2022-10-17T13:37:23.094Z,11.43
2022-10-17T13:38:30.472Z,11.13
2022-10-17T13:39:55.305Z,9.83
2022-10-17T13:41:22.965Z,7.97
2022-10-17T13:42:27.838Z,9.13
2022-10-17T13:43:34.290Z,8.33
2022-10-17T13:44:40.462Z,10.33
2022-10-17T13:45:50.227Z,7.63
2022-10-17T13:46:53.843Z,8.13
2022-10-17T13:47:58.410Z,6.53
2022-10-17T13:49:10.909Z,8.60
2022-10-17T13:50:42.953Z,7.77
2022-10-17T13:51:50.408Z,9.87
2022-10-17T13:53:17.561Z,20.53
2022-10-17T13:54:35.115Z,8.90
2022-10-17T13:55:38.069Z,8.40
2022-10-17T13:56:42.090Z,10.23
2022-10-17T13:57:45.018Z,8.23
2022-10-17T13:58:51.716Z,6.60
2022-10-17T13:59:57.647Z,10.87
2022-10-17T14:01:01.812Z,8.13
2022-10-17T14:02:06.098Z,10.27
2022-10-17T14:03:10.007Z,11.70
2022-10-17T14:04:19.803Z,9.77
2022-10-17T14:05:24.441Z,7.87
2022-10-17T14:06:28.793Z,8.70
2022-10-17T14:07:52.032Z,8.47
2022-10-17T14:09:02.557Z,9.03
2022-10-17T14:10:07.326Z,7.30
2022-10-17T14:11:24.138Z,6.90
2022-10-17T14:12:27.267Z,7.13
2022-10-17T14:13:34.263Z,9.53
2022-10-17T14:15:05.252Z,7.80
2022-10-17T14:16:05.907Z,6.67
2022-10-17T14:17:14.320Z,7.27
2022-10-17T14:18:20.751Z,9.00
2022-10-17T14:19:27.380Z,9.30
2022-10-17T14:21:55.443Z,6.93
2022-10-17T14:23:21.496Z,10.07
2022-10-17T14:24:30.147Z,8.27
2022-10-17T14:25:35.777Z,8.67
2022-10-17T14:26:48.660Z,7.40
2022-10-17T14:28:02.770Z,7.07
2022-10-17T14:29:08.946Z,8.57
2022-10-17T14:30:55.632Z,7.83
2022-10-17T14:32:03.411Z,8.97
2022-10-17T14:33:08.951Z,21.60
2022-10-17T14:34:22.479Z,14.50
2022-10-17T14:35:41.999Z,7.37
2022-10-17T14:36:54.559Z,7.27
2022-10-17T14:38:00.704Z,7.30
2022-10-17T14:39:05.531Z,9.57
2022-10-17T14:40:16.060Z,9.07
2022-10-17T14:41:41.762Z,9.00
2022-10-17T14:42:46.950Z,8.73
2022-10-17T14:43:56.949Z,12.10
2022-10-17T14:45:06.971Z,14.00
2022-10-17T14:46:15.222Z,10.00
2022-10-17T14:47:42.727Z,9.00
2022-10-17T14:48:44.300Z,8.70
2022-10-17T14:49:51.309Z,8.00
2022-10-17T14:51:08.220Z,7.50
2022-10-17T14:52:27.548Z,11.00
2022-10-17T14:53:31.589Z,18.53
2022-10-17T14:54:36.126Z,10.63
2022-10-17T14:55:41.585Z,9.47
2022-10-17T14:56:50.452Z,7.50
2022-10-17T14:57:54.403Z,7.77
2022-10-17T14:58:57.428Z,10.37
2022-10-17T15:00:01.525Z,8.70
2022-10-17T15:01:04.610Z,10.50
2022-10-17T15:02:10.549Z,9.77
2022-10-17T15:03:14.609Z,15.37
2022-10-17T15:04:18.558Z,11.93
2022-10-17T15:05:23.414Z,9.00